Senjaland — LK2348 — position and weather

sailwx.info

Track history (hours):
 
Tides and Currents Weather Stations Pressure Air Temp Water Temp Dewpoint Dewpoint Depression Visibility Wind Speed Wind Dir Waves Ship Positions

Senjaland

Last reported at 2017-Nov-16 09:05 UTC. Time now 2017-Dec-13 13:12 UTC.
Position N 69°18' E 016°59'.
Warning: this ship's position is 27 days out of date.

Length 14 m.

Type: Fishing. MMSI: 257726500.

Date/timePositionNaut miles runAvg speedWind from/ knotsBaromVisibWave heightAir tempDewpointWater temp
2017-Nov-16 09:05N 69°18' E 016°59'0 0.0
2017-Nov-16 09:00N 69°18' E 016°59'0 0.0
2017-Nov-16 08:30N 69°18' E 016°59'0 0.0
2017-Nov-16 08:00N 69°18' E 016°59'0 0.0
2017-Nov-16 07:30N 69°18' E 016°59'0 0.0
2017-Nov-16 07:00N 69°18' E 016°59'0 0.0
2017-Nov-16 06:30N 69°18' E 016°59'0 0.0
2017-Nov-16 05:59N 69°18' E 016°59'0 0.0
2017-Nov-16 05:30N 69°18' E 016°59'0 0.0
2017-Nov-16 05:00N 69°18' E 016°59'0 0.0
2017-Nov-16 04:30N 69°18' E 016°59'0 0.0
2017-Nov-16 04:00N 69°18' E 016°59'0 0.0
2017-Nov-16 03:30N 69°18' E 016°59'0 0.0
2017-Nov-16 03:00N 69°18' E 016°59'0 0.0
2017-Nov-16 02:30N 69°18' E 016°59'0 0.0
2017-Nov-16 02:00N 69°18' E 016°59'0 0.0
2017-Nov-16 01:30N 69°18' E 016°59'0 0.0
2017-Nov-16 01:00N 69°18' E 016°59'0 0.0
2017-Nov-16 00:30N 69°18' E 016°59'0 0.0
2017-Nov-15 23:59N 69°18' E 016°59'0 0.0
2017-Nov-15 23:30N 69°18' E 016°59'0 0.0
2017-Nov-15 23:00N 69°18' E 016°59'0 0.0
2017-Nov-15 22:30N 69°18' E 016°59'0 0.0
2017-Nov-15 22:01N 69°18' E 016°59'0 0.0
2017-Nov-15 21:30N 69°18' E 016°59'0 0.0
2017-Nov-15 21:00N 69°18' E 016°59'0 0.0
2017-Nov-15 20:30N 69°18' E 016°59'0 0.0
2017-Nov-15 20:00N 69°18' E 016°59'0 0.0
2017-Nov-15 19:30N 69°18' E 016°59'0 0.0
2017-Nov-15 19:00N 69°18' E 016°59'3 5.6
2017-Nov-15 18:30N 69°16' E 016°54'5 9.0
2017-Nov-15 18:00N 69°13' E 016°45'6 1.6
2017-Nov-15 14:28N 69°09' E 016°34'4 9.1
2017-Nov-15 14:00N 69°08' E 016°23'0 0.3
2017-Nov-15 13:29N 69°09' E 016°22'0 0.9
2017-Nov-15 13:00N 69°09' E 016°23'1 1.0
2017-Nov-15 12:30N 69°09' E 016°24'1 1.0
2017-Nov-15 12:00N 69°10' E 016°24'0 0.7
2017-Nov-15 11:30N 69°10' E 016°24'0 0.4
2017-Nov-15 11:00N 69°10' E 016°24'4 8.2
2017-Nov-15 10:30N 69°14' E 016°25'4 7.3
2017-Nov-15 10:00N 69°18' E 016°27'0 0.4
2017-Nov-15 09:30N 69°18' E 016°27'0 0.8
2017-Nov-15 08:59N 69°19' E 016°27'0 0.9
2017-Nov-15 08:30N 69°19' E 016°27'0 0.8
2017-Nov-15 08:00N 69°19' E 016°27'0 1.0
2017-Nov-15 07:30N 69°20' E 016°28'1 1.1
2017-Nov-15 07:00N 69°20' E 016°27'0 0.5
2017-Nov-15 06:30N 69°21' E 016°27'1 2.6
2017-Nov-15 06:00N 69°20' E 016°30'4 8.5
2017-Nov-15 05:30N 69°18' E 016°41'4 7.6
2017-Nov-15 05:00N 69°17' E 016°51'3 5.9
2017-Nov-15 04:30N 69°18' E 016°59'0 0.0
2017-Nov-15 04:00N 69°18' E 016°59'0 0.0
2017-Nov-15 03:30N 69°18' E 016°59'0 0.0
2017-Nov-15 03:00N 69°18' E 016°59'0 0.0
2017-Nov-15 02:30N 69°18' E 016°59'0 0.0
2017-Nov-15 02:00N 69°18' E 016°59'0 0.0
2017-Nov-15 01:29N 69°18' E 016°59'0 0.0
2017-Nov-15 01:00N 69°18' E 016°59'0 0.0
2017-Nov-15 00:30N 69°18' E 016°59'0 0.0
2017-Nov-15 00:00N 69°18' E 016°59'0 0.0
2017-Nov-14 23:30N 69°18' E 016°59'0 0.0
2017-Nov-14 23:00N 69°18' E 016°59'0 0.0
2017-Nov-14 22:30N 69°18' E 016°59'0 0.0
2017-Nov-14 22:00N 69°18' E 016°59'0 0.0
2017-Nov-14 21:30N 69°18' E 016°59'0 0.0
2017-Nov-14 21:00N 69°18' E 016°59'0 0.0
2017-Nov-14 20:30N 69°18' E 016°59'0 0.0
2017-Nov-14 20:00N 69°18' E 016°59'0 0.0
2017-Nov-14 19:30N 69°18' E 016°59'0 0.0
2017-Nov-14 19:00N 69°18' E 016°59'0 0.0
2017-Nov-14 18:30N 69°18' E 016°59'0 0.0
2017-Nov-14 17:59N 69°18' E 016°59'0 0.0
2017-Nov-14 17:30N 69°18' E 016°59'0 0.0
2017-Nov-14 17:00N 69°18' E 016°59'0 0.0
2017-Nov-14 16:30N 69°18' E 016°59'0 0.0
2017-Nov-14 16:00N 69°18' E 016°59'0 0.0
2017-Nov-14 15:30N 69°18' E 016°59'0 0.0
2017-Nov-14 15:01N 69°18' E 016°59'0 0.0
2017-Nov-14 14:30N 69°18' E 016°59'0 0.0
2017-Nov-14 14:00N 69°18' E 016°59'0 0.0
2017-Nov-14 13:30N 69°18' E 016°59'0 0.0
2017-Nov-14 13:00N 69°18' E 016°59'0 0.0
2017-Nov-14 12:30N 69°18' E 016°59'1 2.1
2017-Nov-14 12:00N 69°17' E 016°57'4 8.8
2017-Nov-14 11:30N 69°14' E 016°48'4 3.4
2017-Nov-14 10:19N 69°11' E 016°41'2 7.2
2017-Nov-14 10:00N 69°09' E 016°38'4 9.0
2017-Nov-14 09:30N 69°08' E 016°26'2 3.2
2017-Nov-14 09:00N 69°10' E 016°24'2 4.7
2017-Nov-14 08:30N 69°12' E 016°25'4 8.8
2017-Nov-14 08:00N 69°16' E 016°27'4 8.7
2017-Nov-14 07:30N 69°21' E 016°27'2 4.2
2017-Nov-14 07:00N 69°19' E 016°27'2 4.4
2017-Nov-14 06:30N 69°18' E 016°32'4 7.7
2017-Nov-14 06:00N 69°17' E 016°43'4 7.6
2017-Nov-14 05:30N 69°17' E 016°54'2 4.1
2017-Nov-14 05:00N 69°18' E 016°59'0 0.0
2017-Nov-14 04:30N 69°18' E 016°59'0 0.0
2017-Nov-14 04:00N 69°18' E 016°59'0 0.0
2017-Nov-14 03:30N 69°18' E 016°59'0 0.0
2017-Nov-14 03:00N 69°18' E 016°59'0 0.0
2017-Nov-14 02:30N 69°18' E 016°59'0 0.0
2017-Nov-14 02:00N 69°18' E 016°59'0 0.0
2017-Nov-14 01:30N 69°18' E 016°59'0 0.0
2017-Nov-14 01:00N 69°18' E 016°59'0 0.0
2017-Nov-14 00:30N 69°18' E 016°59'0 0.0
2017-Nov-14 00:00N 69°18' E 016°59'0 0.0
2017-Nov-13 23:30N 69°18' E 016°59'0 0.0
2017-Nov-13 23:00N 69°18' E 016°59'0 0.0
2017-Nov-13 22:30N 69°18' E 016°59'0 0.0
2017-Nov-13 22:00N 69°18' E 016°59'  
2017-Nov-10 08:23N 69°18' E 016°59'0 0.0
2017-Nov-10 08:00N 69°18' E 016°59'0 0.0
2017-Nov-10 07:30N 69°18' E 016°59'0 0.0
2017-Nov-10 07:00N 69°18' E 016°59'0 0.0
2017-Nov-10 06:30N 69°18' E 016°59'0 0.0
2017-Nov-10 06:01N 69°18' E 016°59'0 0.0
2017-Nov-10 05:30N 69°18' E 016°59'0 0.0
2017-Nov-10 05:00N 69°18' E 016°59'0 0.0
2017-Nov-10 04:30N 69°18' E 016°59'0 0.0
2017-Nov-10 03:59N 69°18' E 016°59'0 0.0
2017-Nov-10 03:29N 69°18' E 016°59'0 0.0
2017-Nov-10 03:00N 69°18' E 016°59'0 0.0
2017-Nov-10 02:29N 69°18' E 016°59'0 0.0
2017-Nov-10 02:00N 69°18' E 016°59'0 0.0
2017-Nov-10 01:30N 69°18' E 016°59'2 3.7
2017-Nov-10 01:00N 69°17' E 016°55'4 8.4
2017-Nov-10 00:30N 69°14' E 016°46'4 8.8
2017-Nov-10 00:00N 69°13' E 016°34'4 7.4
2017-Nov-09 23:30N 69°11' E 016°25'0 0.3
2017-Nov-09 23:00N 69°11' E 016°25'1 1.1
2017-Nov-09 22:30N 69°12' E 016°26'0 1.0
2017-Nov-09 22:00N 69°12' E 016°26'0 0.9
2017-Nov-09 21:30N 69°13' E 016°27'0 0.7
2017-Nov-09 21:00N 69°13' E 016°27'0 1.0
2017-Nov-09 20:30N 69°13' E 016°27'0 0.9
2017-Nov-09 20:00N 69°14' E 016°27'0 0.9
2017-Nov-09 19:31N 69°14' E 016°27'2 3.4
2017-Nov-09 19:00N 69°16' E 016°27'0 0.6
2017-Nov-09 18:30N 69°16' E 016°28'0 0.9
2017-Nov-09 18:01N 69°17' E 016°27'0 0.9
2017-Nov-09 17:29N 69°17' E 016°27'0 0.7
2017-Nov-09 17:00N 69°18' E 016°27'0 0.9
2017-Nov-09 16:30N 69°18' E 016°27'0 0.6
2017-Nov-09 16:00N 69°18' E 016°27'0 0.3
2017-Nov-09 15:30N 69°18' E 016°27'0 0.8
2017-Nov-09 15:00N 69°19' E 016°27'0 0.5
2017-Nov-09 14:31N 69°19' E 016°27'0 0.6
2017-Nov-09 14:00N 69°19' E 016°27'0 0.4
2017-Nov-09 13:30N 69°20' E 016°27'0 0.3
2017-Nov-09 13:00N 69°20' E 016°27'0 0.3
2017-Nov-09 12:30N 69°20' E 016°27'1 1.1
2017-Nov-09 12:00N 69°20' E 016°27'3 6.5
2017-Nov-09 11:30N 69°19' E 016°36'4 8.8
2017-Nov-09 11:01N 69°17' E 016°46'4 7.9
2017-Nov-09 10:30N 69°17' E 016°57'1 1.7
2017-Nov-09 10:00N 69°18' E 016°59'0 0.0
2017-Nov-09 09:30N 69°18' E 016°59'0 0.0
2017-Nov-09 09:00N 69°18' E 016°59'0 0.0
2017-Nov-09 08:30N 69°18' E 016°59'0 0.0
2017-Nov-09 08:00N 69°18' E 016°59'0 0.0
2017-Nov-09 07:30N 69°18' E 016°59'0 0.0
2017-Nov-09 07:00N 69°18' E 016°59'0 0.0
2017-Nov-09 06:30N 69°18' E 016°59'0 0.0
2017-Nov-09 06:00N 69°18' E 016°59'0 0.0
2017-Nov-09 05:30N 69°18' E 016°59'0 0.0
2017-Nov-09 05:00N 69°18' E 016°59'0 0.0
2017-Nov-09 04:30N 69°18' E 016°59'0 0.0
2017-Nov-09 04:00N 69°18' E 016°59'0 0.0
2017-Nov-09 03:30N 69°18' E 016°59'0 0.0
2017-Nov-09 03:00N 69°18' E 016°59'0 0.0
2017-Nov-09 02:29N 69°18' E 016°59'0 0.0
2017-Nov-09 02:00N 69°18' E 016°59'0 0.0
2017-Nov-09 01:30N 69°18' E 016°59'0 0.0
2017-Nov-09 01:00N 69°18' E 016°59'0 0.0
2017-Nov-09 00:31N 69°18' E 016°59'0 0.0
2017-Nov-09 00:00N 69°18' E 016°59'0 0.0
2017-Nov-08 23:30N 69°18' E 016°59'0 0.0
2017-Nov-08 23:00N 69°18' E 016°59'0 0.0
2017-Nov-08 22:30N 69°18' E 016°59'0 0.0
2017-Nov-08 22:00N 69°18' E 016°59'0 0.0
2017-Nov-08 21:30N 69°18' E 016°59'0 0.0
2017-Nov-08 21:00N 69°18' E 016°59'0 0.0
2017-Nov-08 20:30N 69°18' E 016°59'0 0.0
2017-Nov-08 20:00N 69°18' E 016°59'0 0.0
2017-Nov-08 19:30N 69°18' E 016°59'0 0.0
2017-Nov-08 19:00N 69°18' E 016°59'0 0.0
2017-Nov-08 18:30N 69°18' E 016°59'0 0.0
2017-Nov-08 18:00N 69°18' E 016°59'0 0.0
2017-Nov-08 17:30N 69°18' E 016°59'0 0.0
2017-Nov-08 17:00N 69°18' E 016°59'0 0.0
2017-Nov-08 16:30N 69°18' E 016°59'0 1.0
2017-Nov-08 16:01N 69°18' E 016°58'4 8.6
2017-Nov-08 15:30N 69°17' E 016°46'4 8.3
2017-Nov-08 15:00N 69°17' E 016°34'3 5.0
2017-Nov-08 14:30N 69°16' E 016°28'1 1.7
2017-Nov-08 13:49N 69°17' E 016°27'3 9.8
2017-Nov-08 13:30N 69°20' E 016°27'5 6.0
2017-Nov-08 12:37N 69°18' E 016°41'1 8.6
2017-Nov-08 12:30N 69°17' E 016°43'6 8.2
2017-Nov-08 11:49N 69°18' E 016°59'11 4.1
2017-Nov-08 09:05N 69°16' E 016°28'1 8.1
2017-Nov-08 09:00N 69°16' E 016°28'4 7.7
2017-Nov-08 08:30N 69°20' E 016°27'2 4.5
2017-Nov-08 08:00N 69°18' E 016°27'2 4.2
2017-Nov-08 07:30N 69°16' E 016°28'3 6.1
2017-Nov-08 07:01N 69°17' E 016°36'3 5.6
2017-Nov-08 06:29N 69°17' E 016°44'3 7.0
2017-Nov-08 06:00N 69°17' E 016°54'2 4.1
2017-Nov-08 05:30N 69°18' E 016°59'0 0.0
2017-Nov-08 05:00N 69°18' E 016°59'0 0.0
2017-Nov-08 04:30N 69°18' E 016°59'0 0.0
2017-Nov-08 04:00N 69°18' E 016°59'0 0.0
2017-Nov-08 03:30N 69°18' E 016°59'0 0.0
2017-Nov-08 03:00N 69°18' E 016°59'0 0.0
2017-Nov-08 02:30N 69°18' E 016°59'0 0.0
2017-Nov-08 02:00N 69°18' E 016°59'0 0.0
2017-Nov-08 01:30N 69°18' E 016°59'0 0.0
2017-Nov-08 01:00N 69°18' E 016°59'0 0.0
2017-Nov-08 00:27N 69°18' E 016°59'0 0.0
2017-Nov-08 00:00N 69°18' E 016°59'0 0.0
2017-Nov-07 22:40N 69°18' E 016°59'0 0.0
2017-Nov-07 22:30N 69°18' E 016°59'0 0.0
2017-Nov-07 22:00N 69°18' E 016°59'0 0.0
2017-Nov-07 21:29N 69°18' E 016°59'0 0.0
2017-Nov-07 21:00N 69°18' E 016°59'0 0.0
2017-Nov-07 20:30N 69°18' E 016°59'0 0.0
2017-Nov-07 20:00N 69°18' E 016°59'0 0.0
2017-Nov-07 19:30N 69°18' E 016°59'0 0.0
2017-Nov-07 19:00N 69°18' E 016°59'0 0.0
2017-Nov-07 18:30N 69°18' E 016°59'0 0.0
2017-Nov-07 18:00N 69°18' E 016°59'0 0.0
2017-Nov-07 17:29N 69°18' E 016°59'0 0.0
2017-Nov-07 16:59N 69°18' E 016°59'0 0.0
2017-Nov-07 16:30N 69°18' E 016°59'0 0.0
2017-Nov-07 16:00N 69°18' E 016°59'0 0.0
2017-Nov-07 15:30N 69°18' E 016°59'0 0.0
2017-Nov-07 15:00N 69°18' E 016°59'0 0.0
2017-Nov-07 14:30N 69°18' E 016°59'0 0.0
2017-Nov-07 14:00N 69°18' E 016°59'0 0.0
2017-Nov-07 13:30N 69°18' E 016°59'0 0.0
2017-Nov-07 13:00N 69°18' E 016°59'0 0.0
2017-Nov-07 12:30N 69°18' E 016°59'0 0.0
2017-Nov-07 12:00N 69°18' E 016°59'0 0.0
2017-Nov-07 11:30N 69°18' E 016°59'0 0.0
2017-Nov-07 11:01N 69°18' E 016°59'0 0.0
2017-Nov-07 10:30N 69°18' E 016°59'0 0.0
2017-Nov-07 10:00N 69°18' E 016°59'0 0.0
2017-Nov-07 09:30N 69°18' E 016°59'0 0.0
2017-Nov-07 09:00N 69°18' E 016°59'0 0.0
2017-Nov-07 08:30N 69°18' E 016°59'0 0.0
2017-Nov-07 07:59N 69°18' E 016°59'0 0.0
2017-Nov-07 07:30N 69°18' E 016°59'0 0.0
2017-Nov-07 07:00N 69°18' E 016°59'0 0.0
2017-Nov-07 06:30N 69°18' E 016°59'0 0.0
2017-Nov-07 06:00N 69°18' E 016°59'0 0.0
2017-Nov-07 05:30N 69°18' E 016°59'0 0.0
2017-Nov-07 05:00N 69°18' E 016°59'0 0.0
2017-Nov-07 04:30N 69°18' E 016°59'0 0.0
2017-Nov-07 04:00N 69°18' E 016°59'0 0.0
2017-Nov-07 03:29N 69°18' E 016°59'0 0.0
2017-Nov-07 03:00N 69°18' E 016°59'0 0.0
2017-Nov-07 02:30N 69°18' E 016°59'0 0.0
2017-Nov-07 01:59N 69°18' E 016°59'0 0.0
2017-Nov-07 01:30N 69°18' E 016°59'0 0.0
2017-Nov-07 01:00N 69°18' E 016°59'0 0.0
2017-Nov-07 00:30N 69°18' E 016°59'0 0.0
2017-Nov-07 00:00N 69°18' E 016°59'0 0.0
2017-Nov-06 23:30N 69°18' E 016°59'0 0.0
2017-Nov-06 23:00N 69°18' E 016°59'0 0.0
2017-Nov-06 22:30N 69°18' E 016°59'0 0.0
2017-Nov-06 21:59N 69°18' E 016°59'0 0.0
2017-Nov-06 21:30N 69°18' E 016°59'0 0.0
2017-Nov-06 21:00N 69°18' E 016°59'0 0.0
2017-Nov-06 20:30N 69°18' E 016°59'  
Track history (hours):
 
Tides and Currents Weather Stations Pressure Air Temp Water Temp Dewpoint Dewpoint Depression Visibility Wind Speed Wind Dir Waves Ship Positions

Senjaland

Last reported at 2017-Nov-16 09:05 UTC. Time now 2017-Dec-13 13:12 UTC.
Position N 69°18' E 016°59'.
Warning: this ship's position is 27 days out of date.

Length 14 m.

Type: Fishing. MMSI: 257726500.

Date/timePositionNaut miles runAvg speedWind from/ knotsBaromVisibWave heightAir tempDewpointWater temp
2017-Nov-16 09:05N 69°18' E 016°59'0 0.0
2017-Nov-16 09:00N 69°18' E 016°59'0 0.0
2017-Nov-16 08:30N 69°18' E 016°59'0 0.0
2017-Nov-16 08:00N 69°18' E 016°59'0 0.0
2017-Nov-16 07:30N 69°18' E 016°59'0 0.0
2017-Nov-16 07:00N 69°18' E 016°59'0 0.0
2017-Nov-16 06:30N 69°18' E 016°59'0 0.0
2017-Nov-16 05:59N 69°18' E 016°59'0 0.0
2017-Nov-16 05:30N 69°18' E 016°59'0 0.0
2017-Nov-16 05:00N 69°18' E 016°59'0 0.0
2017-Nov-16 04:30N 69°18' E 016°59'0 0.0
2017-Nov-16 04:00N 69°18' E 016°59'0 0.0
2017-Nov-16 03:30N 69°18' E 016°59'0 0.0
2017-Nov-16 03:00N 69°18' E 016°59'0 0.0
2017-Nov-16 02:30N 69°18' E 016°59'0 0.0
2017-Nov-16 02:00N 69°18' E 016°59'0 0.0
2017-Nov-16 01:30N 69°18' E 016°59'0 0.0
2017-Nov-16 01:00N 69°18' E 016°59'0 0.0
2017-Nov-16 00:30N 69°18' E 016°59'0 0.0
2017-Nov-15 23:59N 69°18' E 016°59'0 0.0
2017-Nov-15 23:30N 69°18' E 016°59'0 0.0
2017-Nov-15 23:00N 69°18' E 016°59'0 0.0
2017-Nov-15 22:30N 69°18' E 016°59'0 0.0
2017-Nov-15 22:01N 69°18' E 016°59'0 0.0
2017-Nov-15 21:30N 69°18' E 016°59'0 0.0
2017-Nov-15 21:00N 69°18' E 016°59'0 0.0
2017-Nov-15 20:30N 69°18' E 016°59'0 0.0
2017-Nov-15 20:00N 69°18' E 016°59'0 0.0
2017-Nov-15 19:30N 69°18' E 016°59'0 0.0
2017-Nov-15 19:00N 69°18' E 016°59'3 5.6
2017-Nov-15 18:30N 69°16' E 016°54'5 9.0
2017-Nov-15 18:00N 69°13' E 016°45'6 1.6
2017-Nov-15 14:28N 69°09' E 016°34'4 9.1
2017-Nov-15 14:00N 69°08' E 016°23'0 0.3
2017-Nov-15 13:29N 69°09' E 016°22'0 0.9
2017-Nov-15 13:00N 69°09' E 016°23'1 1.0
2017-Nov-15 12:30N 69°09' E 016°24'1 1.0
2017-Nov-15 12:00N 69°10' E 016°24'0 0.7
2017-Nov-15 11:30N 69°10' E 016°24'0 0.4
2017-Nov-15 11:00N 69°10' E 016°24'4 8.2
2017-Nov-15 10:30N 69°14' E 016°25'4 7.3
2017-Nov-15 10:00N 69°18' E 016°27'0 0.4
2017-Nov-15 09:30N 69°18' E 016°27'0 0.8
2017-Nov-15 08:59N 69°19' E 016°27'0 0.9
2017-Nov-15 08:30N 69°19' E 016°27'0 0.8
2017-Nov-15 08:00N 69°19' E 016°27'0 1.0
2017-Nov-15 07:30N 69°20' E 016°28'1 1.1
2017-Nov-15 07:00N 69°20' E 016°27'0 0.5
2017-Nov-15 06:30N 69°21' E 016°27'1 2.6
2017-Nov-15 06:00N 69°20' E 016°30'4 8.5
2017-Nov-15 05:30N 69°18' E 016°41'4 7.6
2017-Nov-15 05:00N 69°17' E 016°51'3 5.9
2017-Nov-15 04:30N 69°18' E 016°59'0 0.0
2017-Nov-15 04:00N 69°18' E 016°59'0 0.0
2017-Nov-15 03:30N 69°18' E 016°59'0 0.0
2017-Nov-15 03:00N 69°18' E 016°59'0 0.0
2017-Nov-15 02:30N 69°18' E 016°59'0 0.0
2017-Nov-15 02:00N 69°18' E 016°59'0 0.0
2017-Nov-15 01:29N 69°18' E 016°59'0 0.0
2017-Nov-15 01:00N 69°18' E 016°59'0 0.0
2017-Nov-15 00:30N 69°18' E 016°59'0 0.0
2017-Nov-15 00:00N 69°18' E 016°59'0 0.0
2017-Nov-14 23:30N 69°18' E 016°59'0 0.0
2017-Nov-14 23:00N 69°18' E 016°59'0 0.0
2017-Nov-14 22:30N 69°18' E 016°59'0 0.0
2017-Nov-14 22:00N 69°18' E 016°59'0 0.0
2017-Nov-14 21:30N 69°18' E 016°59'0 0.0
2017-Nov-14 21:00N 69°18' E 016°59'0 0.0
2017-Nov-14 20:30N 69°18' E 016°59'0 0.0
2017-Nov-14 20:00N 69°18' E 016°59'0 0.0
2017-Nov-14 19:30N 69°18' E 016°59'0 0.0
2017-Nov-14 19:00N 69°18' E 016°59'0 0.0
2017-Nov-14 18:30N 69°18' E 016°59'0 0.0
2017-Nov-14 17:59N 69°18' E 016°59'0 0.0
2017-Nov-14 17:30N 69°18' E 016°59'0 0.0
2017-Nov-14 17:00N 69°18' E 016°59'0 0.0
2017-Nov-14 16:30N 69°18' E 016°59'0 0.0
2017-Nov-14 16:00N 69°18' E 016°59'0 0.0
2017-Nov-14 15:30N 69°18' E 016°59'0 0.0
2017-Nov-14 15:01N 69°18' E 016°59'0 0.0
2017-Nov-14 14:30N 69°18' E 016°59'0 0.0
2017-Nov-14 14:00N 69°18' E 016°59'0 0.0
2017-Nov-14 13:30N 69°18' E 016°59'0 0.0
2017-Nov-14 13:00N 69°18' E 016°59'0 0.0
2017-Nov-14 12:30N 69°18' E 016°59'1 2.1
2017-Nov-14 12:00N 69°17' E 016°57'4 8.8
2017-Nov-14 11:30N 69°14' E 016°48'4 3.4
2017-Nov-14 10:19N 69°11' E 016°41'2 7.2
2017-Nov-14 10:00N 69°09' E 016°38'4 9.0
2017-Nov-14 09:30N 69°08' E 016°26'2 3.2
2017-Nov-14 09:00N 69°10' E 016°24'2 4.7
2017-Nov-14 08:30N 69°12' E 016°25'4 8.8
2017-Nov-14 08:00N 69°16' E 016°27'4 8.7
2017-Nov-14 07:30N 69°21' E 016°27'2 4.2
2017-Nov-14 07:00N 69°19' E 016°27'2 4.4
2017-Nov-14 06:30N 69°18' E 016°32'4 7.7
2017-Nov-14 06:00N 69°17' E 016°43'4 7.6
2017-Nov-14 05:30N 69°17' E 016°54'2 4.1
2017-Nov-14 05:00N 69°18' E 016°59'0 0.0
2017-Nov-14 04:30N 69°18' E 016°59'0 0.0
2017-Nov-14 04:00N 69°18' E 016°59'0 0.0
2017-Nov-14 03:30N 69°18' E 016°59'0 0.0
2017-Nov-14 03:00N 69°18' E 016°59'0 0.0
2017-Nov-14 02:30N 69°18' E 016°59'0 0.0
2017-Nov-14 02:00N 69°18' E 016°59'0 0.0
2017-Nov-14 01:30N 69°18' E 016°59'0 0.0
2017-Nov-14 01:00N 69°18' E 016°59'0 0.0
2017-Nov-14 00:30N 69°18' E 016°59'0 0.0
2017-Nov-14 00:00N 69°18' E 016°59'0 0.0
2017-Nov-13 23:30N 69°18' E 016°59'0 0.0
2017-Nov-13 23:00N 69°18' E 016°59'0 0.0
2017-Nov-13 22:30N 69°18' E 016°59'0 0.0
2017-Nov-13 22:00N 69°18' E 016°59'  
2017-Nov-10 08:23N 69°18' E 016°59'0 0.0
2017-Nov-10 08:00N 69°18' E 016°59'0 0.0
2017-Nov-10 07:30N 69°18' E 016°59'0 0.0
2017-Nov-10 07:00N 69°18' E 016°59'0 0.0
2017-Nov-10 06:30N 69°18' E 016°59'0 0.0
2017-Nov-10 06:01N 69°18' E 016°59'0 0.0
2017-Nov-10 05:30N 69°18' E 016°59'0 0.0
2017-Nov-10 05:00N 69°18' E 016°59'0 0.0
2017-Nov-10 04:30N 69°18' E 016°59'0 0.0
2017-Nov-10 03:59N 69°18' E 016°59'0 0.0
2017-Nov-10 03:29N 69°18' E 016°59'0 0.0
2017-Nov-10 03:00N 69°18' E 016°59'0 0.0
2017-Nov-10 02:29N 69°18' E 016°59'0 0.0
2017-Nov-10 02:00N 69°18' E 016°59'0 0.0
2017-Nov-10 01:30N 69°18' E 016°59'2 3.7
2017-Nov-10 01:00N 69°17' E 016°55'4 8.4
2017-Nov-10 00:30N 69°14' E 016°46'4 8.8
2017-Nov-10 00:00N 69°13' E 016°34'4 7.4
2017-Nov-09 23:30N 69°11' E 016°25'0 0.3
2017-Nov-09 23:00N 69°11' E 016°25'1 1.1
2017-Nov-09 22:30N 69°12' E 016°26'0 1.0
2017-Nov-09 22:00N 69°12' E 016°26'0 0.9
2017-Nov-09 21:30N 69°13' E 016°27'0 0.7
2017-Nov-09 21:00N 69°13' E 016°27'0 1.0
2017-Nov-09 20:30N 69°13' E 016°27'0 0.9
2017-Nov-09 20:00N 69°14' E 016°27'0 0.9
2017-Nov-09 19:31N 69°14' E 016°27'2 3.4
2017-Nov-09 19:00N 69°16' E 016°27'0 0.6
2017-Nov-09 18:30N 69°16' E 016°28'0 0.9
2017-Nov-09 18:01N 69°17' E 016°27'0 0.9
2017-Nov-09 17:29N 69°17' E 016°27'0 0.7
2017-Nov-09 17:00N 69°18' E 016°27'0 0.9
2017-Nov-09 16:30N 69°18' E 016°27'0 0.6
2017-Nov-09 16:00N 69°18' E 016°27'0 0.3
2017-Nov-09 15:30N 69°18' E 016°27'0 0.8
2017-Nov-09 15:00N 69°19' E 016°27'0 0.5
2017-Nov-09 14:31N 69°19' E 016°27'0 0.6
2017-Nov-09 14:00N 69°19' E 016°27'0 0.4
2017-Nov-09 13:30N 69°20' E 016°27'0 0.3
2017-Nov-09 13:00N 69°20' E 016°27'0 0.3
2017-Nov-09 12:30N 69°20' E 016°27'1 1.1
2017-Nov-09 12:00N 69°20' E 016°27'3 6.5
2017-Nov-09 11:30N 69°19' E 016°36'4 8.8
2017-Nov-09 11:01N 69°17' E 016°46'4 7.9
2017-Nov-09 10:30N 69°17' E 016°57'1 1.7
2017-Nov-09 10:00N 69°18' E 016°59'0 0.0
2017-Nov-09 09:30N 69°18' E 016°59'0 0.0
2017-Nov-09 09:00N 69°18' E 016°59'0 0.0
2017-Nov-09 08:30N 69°18' E 016°59'0 0.0
2017-Nov-09 08:00N 69°18' E 016°59'0 0.0
2017-Nov-09 07:30N 69°18' E 016°59'0 0.0
2017-Nov-09 07:00N 69°18' E 016°59'0 0.0
2017-Nov-09 06:30N 69°18' E 016°59'0 0.0
2017-Nov-09 06:00N 69°18' E 016°59'0 0.0
2017-Nov-09 05:30N 69°18' E 016°59'0 0.0
2017-Nov-09 05:00N 69°18' E 016°59'0 0.0
2017-Nov-09 04:30N 69°18' E 016°59'0 0.0
2017-Nov-09 04:00N 69°18' E 016°59'0 0.0
2017-Nov-09 03:30N 69°18' E 016°59'0 0.0
2017-Nov-09 03:00N 69°18' E 016°59'0 0.0
2017-Nov-09 02:29N 69°18' E 016°59'0 0.0
2017-Nov-09 02:00N 69°18' E 016°59'0 0.0
2017-Nov-09 01:30N 69°18' E 016°59'0 0.0
2017-Nov-09 01:00N 69°18' E 016°59'0 0.0
2017-Nov-09 00:31N 69°18' E 016°59'0 0.0
2017-Nov-09 00:00N 69°18' E 016°59'0 0.0
2017-Nov-08 23:30N 69°18' E 016°59'0 0.0
2017-Nov-08 23:00N 69°18' E 016°59'0 0.0
2017-Nov-08 22:30N 69°18' E 016°59'0 0.0
2017-Nov-08 22:00N 69°18' E 016°59'0 0.0
2017-Nov-08 21:30N 69°18' E 016°59'0 0.0
2017-Nov-08 21:00N 69°18' E 016°59'0 0.0
2017-Nov-08 20:30N 69°18' E 016°59'0 0.0
2017-Nov-08 20:00N 69°18' E 016°59'0 0.0
2017-Nov-08 19:30N 69°18' E 016°59'0 0.0
2017-Nov-08 19:00N 69°18' E 016°59'0 0.0
2017-Nov-08 18:30N 69°18' E 016°59'0 0.0
2017-Nov-08 18:00N 69°18' E 016°59'0 0.0
2017-Nov-08 17:30N 69°18' E 016°59'0 0.0
2017-Nov-08 17:00N 69°18' E 016°59'0 0.0
2017-Nov-08 16:30N 69°18' E 016°59'0 1.0
2017-Nov-08 16:01N 69°18' E 016°58'4 8.6
2017-Nov-08 15:30N 69°17' E 016°46'4 8.3
2017-Nov-08 15:00N 69°17' E 016°34'3 5.0
2017-Nov-08 14:30N 69°16' E 016°28'1 1.7
2017-Nov-08 13:49N 69°17' E 016°27'3 9.8
2017-Nov-08 13:30N 69°20' E 016°27'5 6.0
2017-Nov-08 12:37N 69°18' E 016°41'1 8.6
2017-Nov-08 12:30N 69°17' E 016°43'6 8.2
2017-Nov-08 11:49N 69°18' E 016°59'11 4.1
2017-Nov-08 09:05N 69°16' E 016°28'1 8.1
2017-Nov-08 09:00N 69°16' E 016°28'4 7.7
2017-Nov-08 08:30N 69°20' E 016°27'2 4.5
2017-Nov-08 08:00N 69°18' E 016°27'2 4.2
2017-Nov-08 07:30N 69°16' E 016°28'3 6.1
2017-Nov-08 07:01N 69°17' E 016°36'3 5.6
2017-Nov-08 06:29N 69°17' E 016°44'3 7.0
2017-Nov-08 06:00N 69°17' E 016°54'2 4.1
2017-Nov-08 05:30N 69°18' E 016°59'0 0.0
2017-Nov-08 05:00N 69°18' E 016°59'0 0.0
2017-Nov-08 04:30N 69°18' E 016°59'0 0.0
2017-Nov-08 04:00N 69°18' E 016°59'0 0.0
2017-Nov-08 03:30N 69°18' E 016°59'0 0.0
2017-Nov-08 03:00N 69°18' E 016°59'0 0.0
2017-Nov-08 02:30N 69°18' E 016°59'0 0.0
2017-Nov-08 02:00N 69°18' E 016°59'0 0.0
2017-Nov-08 01:30N 69°18' E 016°59'0 0.0
2017-Nov-08 01:00N 69°18' E 016°59'0 0.0
2017-Nov-08 00:27N 69°18' E 016°59'0 0.0
2017-Nov-08 00:00N 69°18' E 016°59'0 0.0
2017-Nov-07 22:40N 69°18' E 016°59'0 0.0
2017-Nov-07 22:30N 69°18' E 016°59'0 0.0
2017-Nov-07 22:00N 69°18' E 016°59'0 0.0
2017-Nov-07 21:29N 69°18' E 016°59'0 0.0
2017-Nov-07 21:00N 69°18' E 016°59'0 0.0
2017-Nov-07 20:30N 69°18' E 016°59'0 0.0
2017-Nov-07 20:00N 69°18' E 016°59'0 0.0
2017-Nov-07 19:30N 69°18' E 016°59'0 0.0
2017-Nov-07 19:00N 69°18' E 016°59'0 0.0
2017-Nov-07 18:30N 69°18' E 016°59'0 0.0
2017-Nov-07 18:00N 69°18' E 016°59'0 0.0
2017-Nov-07 17:29N 69°18' E 016°59'0 0.0
2017-Nov-07 16:59N 69°18' E 016°59'0 0.0
2017-Nov-07 16:30N 69°18' E 016°59'0 0.0
2017-Nov-07 16:00N 69°18' E 016°59'0 0.0
2017-Nov-07 15:30N 69°18' E 016°59'0 0.0
2017-Nov-07 15:00N 69°18' E 016°59'0 0.0
2017-Nov-07 14:30N 69°18' E 016°59'0 0.0
2017-Nov-07 14:00N 69°18' E 016°59'0 0.0
2017-Nov-07 13:30N 69°18' E 016°59'0 0.0
2017-Nov-07 13:00N 69°18' E 016°59'0 0.0
2017-Nov-07 12:30N 69°18' E 016°59'0 0.0
2017-Nov-07 12:00N 69°18' E 016°59'0 0.0
2017-Nov-07 11:30N 69°18' E 016°59'0 0.0
2017-Nov-07 11:01N 69°18' E 016°59'0 0.0
2017-Nov-07 10:30N 69°18' E 016°59'0 0.0
2017-Nov-07 10:00N 69°18' E 016°59'0 0.0
2017-Nov-07 09:30N 69°18' E 016°59'0 0.0
2017-Nov-07 09:00N 69°18' E 016°59'0 0.0
2017-Nov-07 08:30N 69°18' E 016°59'0 0.0
2017-Nov-07 07:59N 69°18' E 016°59'0 0.0
2017-Nov-07 07:30N 69°18' E 016°59'0 0.0
2017-Nov-07 07:00N 69°18' E 016°59'0 0.0
2017-Nov-07 06:30N 69°18' E 016°59'0 0.0
2017-Nov-07 06:00N 69°18' E 016°59'0 0.0
2017-Nov-07 05:30N 69°18' E 016°59'0 0.0
2017-Nov-07 05:00N 69°18' E 016°59'0 0.0
2017-Nov-07 04:30N 69°18' E 016°59'0 0.0
2017-Nov-07 04:00N 69°18' E 016°59'0 0.0
2017-Nov-07 03:29N 69°18' E 016°59'0 0.0
2017-Nov-07 03:00N 69°18' E 016°59'0 0.0
2017-Nov-07 02:30N 69°18' E 016°59'0 0.0
2017-Nov-07 01:59N 69°18' E 016°59'0 0.0
2017-Nov-07 01:30N 69°18' E 016°59'0 0.0
2017-Nov-07 01:00N 69°18' E 016°59'0 0.0
2017-Nov-07 00:30N 69°18' E 016°59'0 0.0
2017-Nov-07 00:00N 69°18' E 016°59'0 0.0
2017-Nov-06 23:30N 69°18' E 016°59'0 0.0
2017-Nov-06 23:00N 69°18' E 016°59'0 0.0
2017-Nov-06 22:30N 69°18' E 016°59'0 0.0
2017-Nov-06 21:59N 69°18' E 016°59'0 0.0
2017-Nov-06 21:30N 69°18' E 016°59'0 0.0
2017-Nov-06 21:00N 69°18' E 016°59'0 0.0
2017-Nov-06 20:30N 69°18' E 016°59'  

Dump ship's entire track history